createdAt,value
2022-11-19T00:00:56.127Z,15.00
2022-11-19T00:03:52.352Z,15.00
2022-11-19T00:06:42.158Z,15.00
2022-11-19T00:09:29.658Z,15.00
2022-11-19T00:12:35.165Z,15.00
2022-11-19T00:15:23.294Z,15.00
2022-11-19T00:18:10.835Z,15.00
2022-11-19T00:21:06.638Z,14.90
2022-11-19T00:23:57.299Z,15.00
2022-11-19T00:26:44.667Z,14.90
2022-11-19T00:29:33.136Z,14.90
2022-11-19T00:32:21.022Z,14.90
2022-11-19T00:35:09.791Z,14.90
2022-11-19T00:37:57.701Z,14.90
2022-11-19T00:40:47.860Z,14.90
2022-11-19T00:43:48.513Z,14.90
2022-11-19T00:46:36.632Z,14.90
2022-11-19T00:49:24.496Z,14.90
2022-11-19T00:52:11.945Z,14.90
2022-11-19T00:55:00.314Z,14.90
2022-11-19T00:57:49.275Z,14.90
2022-11-19T01:00:38.116Z,14.90
2022-11-19T01:03:26.320Z,14.90
2022-11-19T01:06:18.892Z,14.90
2022-11-19T01:09:07.244Z,14.90
2022-11-19T01:11:55.118Z,14.90
2022-11-19T01:14:44.088Z,14.80
2022-11-19T01:17:31.466Z,14.90
2022-11-19T01:20:19.377Z,14.90
2022-11-19T01:23:07.255Z,14.90
2022-11-19T01:25:55.115Z,14.90
2022-11-19T01:28:43.299Z,14.90
2022-11-19T01:31:32.481Z,14.90
2022-11-19T01:34:20.448Z,14.90
2022-11-19T01:37:08.332Z,14.90
2022-11-19T01:39:56.170Z,14.90
2022-11-19T01:42:53.982Z,14.90
2022-11-19T01:45:44.326Z,14.90
2022-11-19T01:48:36.770Z,14.90
2022-11-19T01:51:28.578Z,14.90
2022-11-19T01:54:25.289Z,15.00
2022-11-19T01:57:17.091Z,14.90
2022-11-19T02:00:08.404Z,14.90
2022-11-19T02:02:56.712Z,14.90
2022-11-19T02:05:49.338Z,14.90
2022-11-19T02:08:43.560Z,14.90
2022-11-19T02:12:07.933Z,14.90
2022-11-19T02:15:09.118Z,14.90
2022-11-19T02:18:22.807Z,14.90
2022-11-19T02:21:23.512Z,14.90
2022-11-19T02:24:43.208Z,14.90
2022-11-19T02:28:25.469Z,14.80
2022-11-19T02:31:22.395Z,14.80
2022-11-19T02:34:16.791Z,14.80
2022-11-19T02:37:10.206Z,14.80
2022-11-19T02:40:05.511Z,14.80
2022-11-19T02:43:01.242Z,14.80
2022-11-19T02:45:53.590Z,14.80
2022-11-19T02:48:47.666Z,14.80
2022-11-19T02:51:35.871Z,14.80
2022-11-19T02:54:23.483Z,14.80
2022-11-19T02:57:12.527Z,14.80
2022-11-19T03:00:22.211Z,14.80
2022-11-19T03:03:27.108Z,14.80
2022-11-19T03:06:19.502Z,14.80
2022-11-19T03:09:06.940Z,14.80
2022-11-19T03:12:04.618Z,14.80
2022-11-19T03:15:16.011Z,14.80
2022-11-19T03:18:08.416Z,14.80
2022-11-19T03:21:04.814Z,14.80
2022-11-19T03:23:59.702Z,14.80
2022-11-19T03:26:52.909Z,14.80
2022-11-19T03:29:46.600Z,14.80
2022-11-19T03:32:38.308Z,14.80
2022-11-19T03:35:31.987Z,14.80
2022-11-19T03:38:25.726Z,14.80
2022-11-19T03:41:18.667Z,14.80
2022-11-19T03:44:10.236Z,14.80
2022-11-19T03:47:02.332Z,14.80
2022-11-19T03:49:54.459Z,14.80
2022-11-19T03:52:43.744Z,14.80
2022-11-19T03:55:37.012Z,14.80
2022-11-19T03:58:27.835Z,14.80
2022-11-19T04:01:15.987Z,14.80
2022-11-19T04:04:21.308Z,14.80
2022-11-19T04:07:12.193Z,14.80
2022-11-19T04:09:59.725Z,14.80
2022-11-19T04:12:47.151Z,14.80
2022-11-19T04:15:35.766Z,14.70
2022-11-19T04:18:23.462Z,14.70
2022-11-19T04:21:10.903Z,14.70
2022-11-19T04:23:58.055Z,14.70
2022-11-19T04:26:45.686Z,14.70
2022-11-19T04:29:33.242Z,14.70
2022-11-19T04:32:21.873Z,14.70
2022-11-19T04:35:10.103Z,14.70
2022-11-19T04:37:57.508Z,14.70
2022-11-19T04:40:44.899Z,14.60
2022-11-19T04:43:32.208Z,14.60
2022-11-19T04:46:19.538Z,14.60
2022-11-19T04:49:08.345Z,14.60
2022-11-19T04:51:55.749Z,14.60
2022-11-19T04:54:43.334Z,14.60
2022-11-19T04:57:30.539Z,14.60
2022-11-19T05:00:18.715Z,14.60
2022-11-19T05:03:06.258Z,14.60
2022-11-19T05:05:58.959Z,14.60
2022-11-19T05:08:47.202Z,14.60
2022-11-19T05:11:34.529Z,14.60
2022-11-19T05:14:23.786Z,14.70
2022-11-19T05:17:48.896Z,14.70
2022-11-19T05:20:41.951Z,14.70
2022-11-19T05:27:36.590Z,14.70
2022-11-19T05:30:40.884Z,14.70
2022-11-19T05:33:34.016Z,14.70
2022-11-19T05:36:21.884Z,14.70
2022-11-19T05:39:10.715Z,14.70
2022-11-19T05:41:58.000Z,14.70
2022-11-19T05:44:45.400Z,14.70
2022-11-19T05:47:32.621Z,14.60
2022-11-19T05:50:19.896Z,14.60
2022-11-19T05:53:11.000Z,14.60
2022-11-19T05:56:20.352Z,14.60
2022-11-19T05:59:07.728Z,14.60
2022-11-19T06:01:55.397Z,14.60
2022-11-19T06:04:42.578Z,14.60
2022-11-19T06:07:30.004Z,14.60
2022-11-19T06:10:17.779Z,14.60
2022-11-19T06:13:06.556Z,14.60
2022-11-19T06:15:54.474Z,14.60
2022-11-19T06:18:41.827Z,14.60
2022-11-19T06:21:29.508Z,14.60
2022-11-19T06:24:17.168Z,14.60
2022-11-19T06:27:04.598Z,14.60
2022-11-19T06:29:56.202Z,14.60
2022-11-19T06:32:49.653Z,14.60
2022-11-19T06:35:41.102Z,14.60
2022-11-19T06:38:28.495Z,14.50
2022-11-19T06:41:16.526Z,14.60
2022-11-19T06:44:04.251Z,14.50
2022-11-19T06:46:53.016Z,14.50
2022-11-19T06:49:40.619Z,14.50
2022-11-19T06:52:28.398Z,14.50
2022-11-19T06:55:16.175Z,14.50
2022-11-19T06:58:04.562Z,14.40
2022-11-19T07:00:51.899Z,14.40
2022-11-19T07:03:41.241Z,14.40
2022-11-19T07:06:10.664Z,14.40
2022-11-19T07:08:39.721Z,14.40
2022-11-19T07:11:22.693Z,14.30
2022-11-19T07:14:01.223Z,14.30
2022-11-19T07:16:33.296Z,14.30
2022-11-19T07:19:06.091Z,14.30
2022-11-19T07:21:35.483Z,14.30
2022-11-19T07:24:07.662Z,14.30
2022-11-19T07:26:38.176Z,14.30
2022-11-19T07:29:35.390Z,14.20
2022-11-19T07:32:20.081Z,14.20
2022-11-19T07:34:56.455Z,14.20
2022-11-19T07:37:27.499Z,14.20
2022-11-19T07:40:07.505Z,14.20
2022-11-19T07:45:43.416Z,14.10
2022-11-19T07:51:16.700Z,14.10
2022-11-19T07:53:45.736Z,14.00
2022-11-19T07:56:14.726Z,14.00
2022-11-19T07:58:44.132Z,14.00
2022-11-19T08:01:17.878Z,14.00
2022-11-19T08:03:51.848Z,14.00
2022-11-19T08:06:28.123Z,14.00
2022-11-19T08:08:57.878Z,14.00
2022-11-19T08:11:27.183Z,13.90
2022-11-19T08:13:56.231Z,13.90
2022-11-19T08:16:42.632Z,13.90
2022-11-19T08:19:40.314Z,13.90
2022-11-19T08:22:13.882Z,13.90
2022-11-19T08:24:48.657Z,13.90
2022-11-19T08:27:18.633Z,13.90
2022-11-19T08:29:48.112Z,13.90
2022-11-19T08:32:17.690Z,13.80
2022-11-19T08:34:47.181Z,13.80
2022-11-19T08:37:18.125Z,13.80
2022-11-19T08:39:47.524Z,13.80
2022-11-19T08:42:34.256Z,13.80
2022-11-19T08:45:03.671Z,13.80
2022-11-19T08:47:33.140Z,13.80
2022-11-19T08:50:02.546Z,13.80
2022-11-19T08:52:33.339Z,13.80
2022-11-19T08:55:02.707Z,13.80
2022-11-19T08:57:32.222Z,13.80
2022-11-19T09:00:06.235Z,13.80
2022-11-19T09:02:36.345Z,13.80
2022-11-19T09:05:07.874Z,13.80
2022-11-19T09:07:41.552Z,13.70
2022-11-19T09:10:11.566Z,13.70
2022-11-19T09:12:41.097Z,13.70
2022-11-19T09:15:12.049Z,13.70
2022-11-19T09:17:46.596Z,13.70
2022-11-19T09:20:16.875Z,13.70
2022-11-19T09:22:47.770Z,13.70
2022-11-19T09:25:17.373Z,13.70
2022-11-19T09:27:46.849Z,13.70
2022-11-19T09:30:16.801Z,13.60
2022-11-19T09:32:46.230Z,13.60
2022-11-19T09:35:15.855Z,13.60
2022-11-19T09:37:46.704Z,13.60
2022-11-19T09:40:20.541Z,13.60
2022-11-19T09:43:03.842Z,13.60
2022-11-19T09:45:49.270Z,13.60
2022-11-19T09:48:29.341Z,13.60
2022-11-19T09:51:04.297Z,13.60
2022-11-19T09:53:43.120Z,13.60
2022-11-19T09:56:18.699Z,13.50
2022-11-19T09:58:50.937Z,13.50
2022-11-19T10:01:21.023Z,13.50
2022-11-19T10:03:53.416Z,13.50
2022-11-19T10:06:30.678Z,13.50
2022-11-19T10:09:26.247Z,13.50
2022-11-19T10:12:08.256Z,13.50
2022-11-19T10:15:03.222Z,13.50
2022-11-19T10:17:49.016Z,13.50
2022-11-19T10:20:34.330Z,13.50
2022-11-19T10:23:12.042Z,13.50
2022-11-19T10:25:46.460Z,13.50
2022-11-19T10:28:18.928Z,13.50
2022-11-19T10:30:54.564Z,13.50
2022-11-19T10:33:29.393Z,13.40
2022-11-19T10:36:04.932Z,13.40
2022-11-19T10:38:39.557Z,13.40
2022-11-19T10:41:16.949Z,13.40
2022-11-19T10:43:52.978Z,13.30
2022-11-19T10:46:26.235Z,13.30
2022-11-19T10:48:59.559Z,13.30
2022-11-19T10:51:32.340Z,13.30
2022-11-19T10:54:06.685Z,13.20
2022-11-19T10:56:40.939Z,13.20
2022-11-19T10:59:16.572Z,13.20
2022-11-19T11:01:50.424Z,13.20
2022-11-19T11:04:22.917Z,13.20
2022-11-19T11:06:55.174Z,13.20
2022-11-19T11:09:36.086Z,13.20
2022-11-19T11:12:35.343Z,13.20
2022-11-19T11:15:17.020Z,13.20
2022-11-19T11:17:48.460Z,13.20
2022-11-19T11:20:28.487Z,13.20
2022-11-19T11:23:08.091Z,13.20
2022-11-19T11:25:40.304Z,13.20
2022-11-19T11:28:19.818Z,13.10
2022-11-19T11:30:56.790Z,13.20
2022-11-19T11:33:35.837Z,13.20
2022-11-19T11:36:09.195Z,13.20
2022-11-19T11:38:44.342Z,13.20
2022-11-19T11:44:17.587Z,13.10
2022-11-19T11:46:49.929Z,13.20
2022-11-19T11:49:40.581Z,13.10
2022-11-19T11:52:20.995Z,13.10
2022-11-19T11:55:02.428Z,13.10
2022-11-19T11:57:36.292Z,13.10
2022-11-19T12:00:34.282Z,13.10
2022-11-19T12:03:06.238Z,13.10
2022-11-19T12:05:46.766Z,13.10
2022-11-19T12:08:40.199Z,13.10
2022-11-19T12:11:18.780Z,13.10
2022-11-19T12:14:00.559Z,13.10
2022-11-19T12:16:47.746Z,13.10
2022-11-19T12:19:44.648Z,13.10
2022-11-19T12:22:24.273Z,13.10
2022-11-19T12:25:28.355Z,13.10
2022-11-19T12:28:28.886Z,13.10
2022-11-19T12:31:12.994Z,13.10
2022-11-19T12:34:25.158Z,13.10
2022-11-19T12:37:06.049Z,13.10
2022-11-19T12:39:47.524Z,13.10
2022-11-19T12:42:42.276Z,13.10
2022-11-19T12:45:22.955Z,13.10
2022-11-19T12:48:18.816Z,13.10
2022-11-19T12:50:56.988Z,13.10
2022-11-19T12:53:43.972Z,13.10
2022-11-19T12:56:30.507Z,13.10
2022-11-19T12:59:12.222Z,13.10
2022-11-19T13:01:49.414Z,13.10
2022-11-19T13:04:26.383Z,13.00
2022-11-19T13:07:04.350Z,13.00
2022-11-19T13:09:43.853Z,13.00
2022-11-19T13:12:16.938Z,13.00
2022-11-19T13:14:54.821Z,13.00
2022-11-19T13:17:30.823Z,13.00
2022-11-19T13:20:05.680Z,13.00
2022-11-19T13:22:39.378Z,13.00
2022-11-19T13:25:20.026Z,13.00
2022-11-19T13:27:51.910Z,13.00
2022-11-19T13:30:23.736Z,12.90
2022-11-19T13:33:03.672Z,12.90
2022-11-19T13:35:39.712Z,12.90
2022-11-19T13:42:12.017Z,12.90
2022-11-19T13:44:42.240Z,12.90
2022-11-19T13:47:19.046Z,13.00
2022-11-19T13:49:58.058Z,12.90
2022-11-19T13:52:32.150Z,12.90
2022-11-19T13:55:03.170Z,12.90
2022-11-19T13:57:36.254Z,12.90
2022-11-19T14:00:08.970Z,12.90
2022-11-19T14:03:23.503Z,12.90
2022-11-19T14:06:36.544Z,12.90
2022-11-19T14:09:23.954Z,12.90
2022-11-19T14:12:41.612Z,12.90
2022-11-19T14:16:09.301Z,12.90
2022-11-19T14:18:59.722Z,12.90
2022-11-19T14:22:08.244Z,13.00
2022-11-19T14:29:25.877Z,12.90
2022-11-19T14:32:33.772Z,12.90
2022-11-19T14:35:49.544Z,12.90
2022-11-19T14:38:44.012Z,12.90
2022-11-19T14:41:30.643Z,12.90
2022-11-19T14:44:33.086Z,12.90
2022-11-19T14:48:12.208Z,12.90
2022-11-19T14:51:26.573Z,12.90
2022-11-19T14:54:04.875Z,12.90
2022-11-19T14:56:37.700Z,12.90
2022-11-19T14:59:23.312Z,12.80
2022-11-19T15:01:58.794Z,12.80
2022-11-19T15:04:36.147Z,12.80
2022-11-19T15:07:12.874Z,12.80
2022-11-19T15:10:31.431Z,12.80
2022-11-19T15:13:26.419Z,12.80
2022-11-19T15:16:14.823Z,12.70
2022-11-19T15:19:23.412Z,12.70
2022-11-19T15:22:38.583Z,12.70
2022-11-19T15:25:23.238Z,12.70
2022-11-19T15:28:04.964Z,12.70
2022-11-19T15:30:51.708Z,12.70
2022-11-19T15:33:58.077Z,12.70
2022-11-19T15:36:35.055Z,12.60
2022-11-19T15:39:17.031Z,12.60
2022-11-19T15:42:01.447Z,12.60
2022-11-19T15:44:39.860Z,12.60
2022-11-19T15:47:19.163Z,12.60
2022-11-19T15:49:50.134Z,12.60
2022-11-19T15:52:28.151Z,12.50
2022-11-19T15:55:20.241Z,12.60
2022-11-19T15:57:55.007Z,12.60
2022-11-19T16:00:26.144Z,12.50
2022-11-19T16:02:55.952Z,12.50
2022-11-19T16:05:28.757Z,12.50
2022-11-19T16:07:59.977Z,12.50
2022-11-19T16:10:34.951Z,12.50
2022-11-19T16:13:39.144Z,12.50
2022-11-19T16:16:34.255Z,12.50
2022-11-19T16:19:07.080Z,12.50
2022-11-19T16:21:41.437Z,12.50
2022-11-19T16:24:32.295Z,12.50
2022-11-19T16:27:04.813Z,12.50
2022-11-19T16:29:41.461Z,12.50
2022-11-19T16:32:16.917Z,12.40
2022-11-19T16:34:46.736Z,12.40
2022-11-19T16:37:18.120Z,12.40
2022-11-19T16:39:53.669Z,12.40
2022-11-19T16:42:27.398Z,12.40
2022-11-19T16:45:07.348Z,12.40
2022-11-19T16:47:40.610Z,12.40
2022-11-19T16:50:31.796Z,12.40
2022-11-19T16:53:03.033Z,12.40
2022-11-19T16:55:53.118Z,12.40
2022-11-19T16:58:27.674Z,12.40
2022-11-19T17:00:59.780Z,12.40
2022-11-19T17:03:39.660Z,12.30
2022-11-19T17:06:21.325Z,12.30
2022-11-19T17:08:58.047Z,12.30
2022-11-19T17:12:06.559Z,12.30
2022-11-19T17:15:01.201Z,12.30
2022-11-19T17:17:42.082Z,12.30
2022-11-19T17:20:52.962Z,12.30
2022-11-19T17:23:24.247Z,12.30
2022-11-19T17:25:57.434Z,12.30
2022-11-19T17:28:36.587Z,12.30
2022-11-19T17:31:17.319Z,12.30
2022-11-19T17:33:53.691Z,12.30
2022-11-19T17:36:25.763Z,12.20
2022-11-19T17:38:55.739Z,12.20
2022-11-19T17:41:47.410Z,12.20
2022-11-19T17:44:39.417Z,12.20
2022-11-19T17:47:24.373Z,12.20
2022-11-19T17:49:54.566Z,12.20
2022-11-19T17:52:27.515Z,12.20
2022-11-19T17:55:02.896Z,12.20
2022-11-19T17:57:32.553Z,12.20
2022-11-19T18:00:02.164Z,12.10
2022-11-19T18:02:35.476Z,12.10
2022-11-19T18:05:14.871Z,12.10
2022-11-19T18:07:44.327Z,12.10
2022-11-19T18:10:14.165Z,12.10
2022-11-19T18:12:43.738Z,12.10
2022-11-19T18:15:18.526Z,12.10
2022-11-19T18:17:49.543Z,12.10
2022-11-19T18:20:19.328Z,12.10
2022-11-19T18:22:51.392Z,12.10
2022-11-19T18:25:23.272Z,12.10
2022-11-19T18:27:52.833Z,12.10
2022-11-19T18:30:22.628Z,12.10
2022-11-19T18:32:53.640Z,12.10
2022-11-19T18:35:25.749Z,12.10
2022-11-19T18:37:55.840Z,12.10
2022-11-19T18:40:25.517Z,12.10
2022-11-19T18:43:12.687Z,12.10
2022-11-19T18:45:42.325Z,12.10
2022-11-19T18:48:13.397Z,12.10
2022-11-19T18:50:42.945Z,12.10
2022-11-19T18:53:15.291Z,12.10
2022-11-19T18:55:44.972Z,12.10
2022-11-19T18:58:14.908Z,12.10
2022-11-19T19:00:47.592Z,12.10
2022-11-19T19:03:18.454Z,12.10
2022-11-19T19:05:48.111Z,12.10
2022-11-19T19:08:17.561Z,12.10
2022-11-19T19:10:47.049Z,12.10
2022-11-19T19:13:15.481Z,12.00
2022-11-19T19:15:45.030Z,12.10
2022-11-19T19:18:14.493Z,12.10
2022-11-19T19:20:45.799Z,12.10
2022-11-19T19:23:15.352Z,12.10
2022-11-19T19:25:44.813Z,12.10
2022-11-19T19:28:14.398Z,12.00
2022-11-19T19:30:43.903Z,12.00
2022-11-19T19:33:13.475Z,12.10
2022-11-19T19:35:44.529Z,12.00
2022-11-19T19:38:14.004Z,12.00
2022-11-19T19:40:43.731Z,12.00
2022-11-19T19:43:13.314Z,12.00
2022-11-19T19:45:43.653Z,12.00
2022-11-19T19:48:13.495Z,12.00
2022-11-19T19:50:51.074Z,12.00
2022-11-19T19:53:20.581Z,12.00
2022-11-19T19:55:50.103Z,12.00
2022-11-19T19:58:19.701Z,12.00
2022-11-19T20:00:51.387Z,12.00
2022-11-19T20:03:20.884Z,12.00
2022-11-19T20:05:52.121Z,12.00
2022-11-19T20:08:22.289Z,12.00
2022-11-19T20:10:51.744Z,12.00
2022-11-19T20:13:32.187Z,12.00
2022-11-19T20:16:09.946Z,12.00
2022-11-19T20:18:43.526Z,12.00
2022-11-19T20:21:17.136Z,12.00
2022-11-19T20:23:46.869Z,12.00
2022-11-19T20:26:18.781Z,12.00
2022-11-19T20:28:49.321Z,12.00
2022-11-19T20:31:20.597Z,12.00
2022-11-19T20:33:55.094Z,11.90
2022-11-19T20:36:27.313Z,11.90
2022-11-19T20:38:58.076Z,11.90
2022-11-19T20:41:46.141Z,12.00
2022-11-19T20:44:23.514Z,12.00
2022-11-19T20:46:55.793Z,12.00
2022-11-19T20:49:27.294Z,11.90
2022-11-19T20:51:58.853Z,12.00
2022-11-19T20:54:28.873Z,11.90
2022-11-19T20:56:59.055Z,11.90
2022-11-19T20:59:29.039Z,11.90
2022-11-19T21:01:58.798Z,11.90
2022-11-19T21:04:46.918Z,11.90
2022-11-19T21:07:36.242Z,11.90
2022-11-19T21:10:24.315Z,11.90
2022-11-19T21:13:12.379Z,11.90
2022-11-19T21:16:00.784Z,11.90
2022-11-19T21:18:48.988Z,11.90
2022-11-19T21:21:36.589Z,11.90
2022-11-19T21:24:25.868Z,11.90
2022-11-19T21:27:13.653Z,11.90
2022-11-19T21:30:01.458Z,11.90
2022-11-19T21:32:49.119Z,11.90
2022-11-19T21:35:41.987Z,11.90
2022-11-19T21:38:30.264Z,11.90
2022-11-19T21:41:19.744Z,11.90
2022-11-19T21:44:08.117Z,11.90
2022-11-19T21:46:56.009Z,11.90
2022-11-19T21:49:43.639Z,11.80
2022-11-19T21:52:31.632Z,11.90
2022-11-19T21:55:19.655Z,11.90
2022-11-19T21:58:09.137Z,11.90
2022-11-19T22:00:59.511Z,11.80
2022-11-19T22:03:47.161Z,11.80
2022-11-19T22:06:35.342Z,11.80
2022-11-19T22:09:23.132Z,11.80
2022-11-19T22:12:10.819Z,11.80
2022-11-19T22:14:59.831Z,11.80
2022-11-19T22:17:47.477Z,11.70
2022-11-19T22:20:35.178Z,11.70
2022-11-19T22:23:24.449Z,11.60
2022-11-19T22:26:14.132Z,11.60
2022-11-19T22:29:01.763Z,11.60
2022-11-19T22:31:51.374Z,11.60
2022-11-19T22:34:38.998Z,11.60
2022-11-19T22:37:26.903Z,11.50
2022-11-19T22:40:15.636Z,11.50
2022-11-19T22:43:03.557Z,11.60
2022-11-19T22:45:51.527Z,11.60
2022-11-19T22:48:41.269Z,11.50
2022-11-19T22:51:29.052Z,11.60
2022-11-19T22:54:16.932Z,11.60
2022-11-19T22:57:04.916Z,11.60
2022-11-19T22:59:52.835Z,11.60
2022-11-19T23:02:40.641Z,11.60
2022-11-19T23:05:33.141Z,11.60
2022-11-19T23:08:24.777Z,11.60
2022-11-19T23:11:14.610Z,11.60
2022-11-19T23:14:01.237Z,11.60
2022-11-19T23:16:49.284Z,11.60
2022-11-19T23:19:38.725Z,11.60
2022-11-19T23:22:27.863Z,11.60
2022-11-19T23:25:15.734Z,11.60
2022-11-19T23:28:03.586Z,11.60
2022-11-19T23:30:51.358Z,11.60
2022-11-19T23:33:39.258Z,11.60
2022-11-19T23:36:30.063Z,11.60
2022-11-19T23:39:20.118Z,11.60
2022-11-19T23:42:08.236Z,11.60
2022-11-19T23:44:56.148Z,11.60
2022-11-19T23:47:43.930Z,11.60
2022-11-19T23:50:31.849Z,11.60
2022-11-19T23:53:19.500Z,11.60
2022-11-19T23:56:09.554Z,11.70
2022-11-19T23:58:57.536Z,11.60
